sensor_id;sensor_type;location;lat;lon;timestamp;P1;durP1;ratioP1;P2;durP2;ratioP2
76589;SDS011;65471;55.908;37.880;2023-12-20T00:02:17;2.45;;;2.28;;
76589;SDS011;65471;55.908;37.880;2023-12-20T00:04:44;2.20;;;2.10;;
76589;SDS011;65471;55.908;37.880;2023-12-20T00:07:12;3.05;;;2.50;;
76589;SDS011;65471;55.908;37.880;2023-12-20T00:09:39;2.20;;;2.00;;
76589;SDS011;65471;55.908;37.880;2023-12-20T00:12:06;5.85;;;1.80;;
76589;SDS011;65471;55.908;37.880;2023-12-20T00:14:33;2.55;;;1.90;;
76589;SDS011;65471;55.908;37.880;2023-12-20T00:17:00;2.13;;;1.83;;
76589;SDS011;65471;55.908;37.880;2023-12-20T00:19:27;1.80;;;1.70;;
76589;SDS011;65471;55.908;37.880;2023-12-20T00:21:54;1.60;;;1.60;;
76589;SDS011;65471;55.908;37.880;2023-12-20T00:24:21;1.70;;;1.60;;
76589;SDS011;65471;55.908;37.880;2023-12-20T00:26:48;1.65;;;1.65;;
76589;SDS011;65471;55.908;37.880;2023-12-20T00:29:15;1.48;;;1.40;;
76589;SDS011;65471;55.908;37.880;2023-12-20T00:31:42;1.75;;;1.65;;
76589;SDS011;65471;55.908;37.880;2023-12-20T00:34:09;1.90;;;1.80;;
76589;SDS011;65471;55.908;37.880;2023-12-20T00:36:36;1.77;;;1.77;;
76589;SDS011;65471;55.908;37.880;2023-12-20T00:39:03;2.17;;;2.08;;
76589;SDS011;65471;55.908;37.880;2023-12-20T00:41:31;3.88;;;2.40;;
76589;SDS011;65471;55.908;37.880;2023-12-20T00:43:58;6.20;;;2.38;;
76589;SDS011;65471;55.908;37.880;2023-12-20T00:46:25;3.63;;;2.45;;
76589;SDS011;65471;55.908;37.880;2023-12-20T00:48:52;3.72;;;2.65;;
76589;SDS011;65471;55.908;37.880;2023-12-20T00:51:22;2.85;;;2.70;;
76589;SDS011;65471;55.908;37.880;2023-12-20T00:53:49;2.95;;;2.67;;
76589;SDS011;65471;55.908;37.880;2023-12-20T00:56:17;3.65;;;3.45;;
76589;SDS011;65471;55.908;37.880;2023-12-20T00:58:44;2.17;;;2.08;;
76589;SDS011;65471;55.908;37.880;2023-12-20T01:01:10;2.30;;;2.10;;
76589;SDS011;65471;55.908;37.880;2023-12-20T01:03:38;2.28;;;1.98;;
76589;SDS011;65471;55.908;37.880;2023-12-20T01:06:05;2.72;;;2.03;;
76589;SDS011;65471;55.908;37.880;2023-12-20T01:08:33;5.40;;;2.10;;
76589;SDS011;65471;55.908;37.880;2023-12-20T01:11:03;4.05;;;2.00;;
76589;SDS011;65471;55.908;37.880;2023-12-20T01:13:31;4.05;;;1.98;;
76589;SDS011;65471;55.908;37.880;2023-12-20T01:15:58;2.35;;;1.80;;
76589;SDS011;65471;55.908;37.880;2023-12-20T01:18:26;2.10;;;1.98;;
76589;SDS011;65471;55.908;37.880;2023-12-20T01:20:52;2.40;;;2.20;;
76589;SDS011;65471;55.908;37.880;2023-12-20T01:23:19;2.13;;;1.90;;
76589;SDS011;65471;55.908;37.880;2023-12-20T01:25:46;2.75;;;2.55;;
76589;SDS011;65471;55.908;37.880;2023-12-20T01:28:14;7.97;;;2.10;;
76589;SDS011;65471;55.908;37.880;2023-12-20T01:30:41;2.25;;;2.15;;
76589;SDS011;65471;55.908;37.880;2023-12-20T01:33:09;4.70;;;2.50;;
76589;SDS011;65471;55.908;37.880;2023-12-20T01:35:36;5.18;;;2.22;;
76589;SDS011;65471;55.908;37.880;2023-12-20T01:38:03;3.00;;;2.33;;
76589;SDS011;65471;55.908;37.880;2023-12-20T01:40:30;2.70;;;2.50;;
76589;SDS011;65471;55.908;37.880;2023-12-20T01:42:58;3.80;;;2.85;;
76589;SDS011;65471;55.908;37.880;2023-12-20T01:45:27;2.50;;;2.10;;
76589;SDS011;65471;55.908;37.880;2023-12-20T01:47:57;2.95;;;2.60;;
76589;SDS011;65471;55.908;37.880;2023-12-20T01:50:25;2.83;;;2.63;;
76589;SDS011;65471;55.908;37.880;2023-12-20T01:52:53;2.75;;;2.30;;
76589;SDS011;65471;55.908;37.880;2023-12-20T01:55:24;4.20;;;3.08;;
76589;SDS011;65471;55.908;37.880;2023-12-20T01:57:52;3.80;;;2.33;;
76589;SDS011;65471;55.908;37.880;2023-12-20T02:00:20;3.10;;;2.60;;
76589;SDS011;65471;55.908;37.880;2023-12-20T02:02:50;3.83;;;2.78;;
76589;SDS011;65471;55.908;37.880;2023-12-20T02:05:19;5.30;;;3.20;;
76589;SDS011;65471;55.908;37.880;2023-12-20T02:07:47;3.00;;;2.80;;
76589;SDS011;65471;55.908;37.880;2023-12-20T02:10:15;3.22;;;3.03;;
76589;SDS011;65471;55.908;37.880;2023-12-20T02:12:44;6.55;;;3.20;;
76589;SDS011;65471;55.908;37.880;2023-12-20T02:15:11;3.75;;;2.63;;
76589;SDS011;65471;55.908;37.880;2023-12-20T02:17:39;4.45;;;3.50;;
76589;SDS011;65471;55.908;37.880;2023-12-20T02:20:07;3.38;;;2.92;;
76589;SDS011;65471;55.908;37.880;2023-12-20T02:22:34;4.90;;;3.00;;
76589;SDS011;65471;55.908;37.880;2023-12-20T02:25:01;3.58;;;3.38;;
76589;SDS011;65471;55.908;37.880;2023-12-20T02:27:30;3.83;;;3.50;;
76589;SDS011;65471;55.908;37.880;2023-12-20T02:29:57;5.97;;;3.05;;
76589;SDS011;65471;55.908;37.880;2023-12-20T02:32:24;5.13;;;3.60;;
76589;SDS011;65471;55.908;37.880;2023-12-20T02:34:55;5.45;;;3.28;;
76589;SDS011;65471;55.908;37.880;2023-12-20T02:37:23;7.60;;;4.10;;
76589;SDS011;65471;55.908;37.880;2023-12-20T02:39:50;3.47;;;3.17;;
76589;SDS011;65471;55.908;37.880;2023-12-20T02:42:17;5.30;;;2.67;;
76589;SDS011;65471;55.908;37.880;2023-12-20T02:44:45;3.75;;;2.33;;
76589;SDS011;65471;55.908;37.880;2023-12-20T02:47:11;6.28;;;3.58;;
76589;SDS011;65471;55.908;37.880;2023-12-20T02:49:38;6.82;;;3.55;;
76589;SDS011;65471;55.908;37.880;2023-12-20T02:52:05;3.30;;;2.70;;
76589;SDS011;65471;55.908;37.880;2023-12-20T02:54:33;6.97;;;3.42;;
76589;SDS011;65471;55.908;37.880;2023-12-20T02:57:00;3.10;;;2.90;;
76589;SDS011;65471;55.908;37.880;2023-12-20T02:59:26;2.60;;;2.40;;
76589;SDS011;65471;55.908;37.880;2023-12-20T03:01:53;4.50;;;2.70;;
76589;SDS011;65471;55.908;37.880;2023-12-20T03:04:21;7.20;;;2.17;;
76589;SDS011;65471;55.908;37.880;2023-12-20T03:06:48;2.58;;;2.45;;
76589;SDS011;65471;55.908;37.880;2023-12-20T03:09:15;5.75;;;2.80;;
76589;SDS011;65471;55.908;37.880;2023-12-20T03:11:42;4.55;;;2.75;;
76589;SDS011;65471;55.908;37.880;2023-12-20T03:14:09;2.50;;;2.40;;
76589;SDS011;65471;55.908;37.880;2023-12-20T03:16:36;2.95;;;2.65;;
76589;SDS011;65471;55.908;37.880;2023-12-20T03:19:03;2.58;;;2.38;;
76589;SDS011;65471;55.908;37.880;2023-12-20T03:21:30;5.15;;;2.35;;
76589;SDS011;65471;55.908;37.880;2023-12-20T03:23:57;2.30;;;2.10;;
76589;SDS011;65471;55.908;37.880;2023-12-20T03:26:24;4.47;;;2.50;;
76589;SDS011;65471;55.908;37.880;2023-12-20T03:28:51;2.00;;;1.90;;
76589;SDS011;65471;55.908;37.880;2023-12-20T03:31:18;3.85;;;1.80;;
76589;SDS011;65471;55.908;37.880;2023-12-20T03:33:46;3.92;;;1.90;;
76589;SDS011;65471;55.908;37.880;2023-12-20T03:36:13;3.58;;;2.17;;
76589;SDS011;65471;55.908;37.880;2023-12-20T03:38:40;3.70;;;2.15;;
76589;SDS011;65471;55.908;37.880;2023-12-20T03:41:07;2.67;;;2.00;;
76589;SDS011;65471;55.908;37.880;2023-12-20T03:43:34;2.50;;;2.30;;
76589;SDS011;65471;55.908;37.880;2023-12-20T03:46:02;2.53;;;2.30;;
76589;SDS011;65471;55.908;37.880;2023-12-20T03:48:31;8.40;;;2.30;;
76589;SDS011;65471;55.908;37.880;2023-12-20T03:50:58;4.25;;;2.30;;
76589;SDS011;65471;55.908;37.880;2023-12-20T03:53:25;4.93;;;2.40;;
76589;SDS011;65471;55.908;37.880;2023-12-20T03:55:52;2.40;;;2.13;;
76589;SDS011;65471;55.908;37.880;2023-12-20T03:58:19;2.25;;;2.05;;
76589;SDS011;65471;55.908;37.880;2023-12-20T04:00:46;3.50;;;2.28;;
76589;SDS011;65471;55.908;37.880;2023-12-20T04:03:14;2.80;;;2.22;;
76589;SDS011;65471;55.908;37.880;2023-12-20T04:05:41;4.40;;;2.80;;
76589;SDS011;65471;55.908;37.880;2023-12-20T04:08:08;3.25;;;2.60;;
76589;SDS011;65471;55.908;37.880;2023-12-20T04:10:36;7.60;;;2.70;;
76589;SDS011;65471;55.908;37.880;2023-12-20T04:13:04;8.65;;;2.40;;
76589;SDS011;65471;55.908;37.880;2023-12-20T04:15:31;2.60;;;2.50;;
76589;SDS011;65471;55.908;37.880;2023-12-20T04:17:58;7.70;;;2.30;;
76589;SDS011;65471;55.908;37.880;2023-12-20T04:20:25;2.40;;;2.30;;
76589;SDS011;65471;55.908;37.880;2023-12-20T04:22:52;2.20;;;2.10;;
76589;SDS011;65471;55.908;37.880;2023-12-20T04:25:19;2.92;;;2.70;;
76589;SDS011;65471;55.908;37.880;2023-12-20T04:27:47;2.15;;;2.13;;
76589;SDS011;65471;55.908;37.880;2023-12-20T04:30:14;4.60;;;2.78;;
76589;SDS011;65471;55.908;37.880;2023-12-20T04:32:41;2.25;;;2.15;;
76589;SDS011;65471;55.908;37.880;2023-12-20T04:35:08;6.65;;;3.00;;
76589;SDS011;65471;55.908;37.880;2023-12-20T04:37:36;2.78;;;2.33;;
76589;SDS011;65471;55.908;37.880;2023-12-20T04:40:03;6.70;;;2.53;;
76589;SDS011;65471;55.908;37.880;2023-12-20T04:42:32;3.10;;;2.53;;
76589;SDS011;65471;55.908;37.880;2023-12-20T04:44:59;2.55;;;2.35;;
76589;SDS011;65471;55.908;37.880;2023-12-20T04:47:26;3.05;;;2.92;;
76589;SDS011;65471;55.908;37.880;2023-12-20T04:49:53;3.30;;;3.03;;
76589;SDS011;65471;55.908;37.880;2023-12-20T04:52:20;4.13;;;2.65;;
76589;SDS011;65471;55.908;37.880;2023-12-20T04:54:48;3.47;;;3.03;;
76589;SDS011;65471;55.908;37.880;2023-12-20T04:57:15;10.13;;;3.58;;
76589;SDS011;65471;55.908;37.880;2023-12-20T04:59:42;4.45;;;3.05;;
76589;SDS011;65471;55.908;37.880;2023-12-20T05:02:09;4.00;;;3.70;;
76589;SDS011;65471;55.908;37.880;2023-12-20T05:04:35;3.30;;;3.10;;
76589;SDS011;65471;55.908;37.880;2023-12-20T05:07:03;3.70;;;3.50;;
76589;SDS011;65471;55.908;37.880;2023-12-20T05:11:58;11.30;;;3.97;;
76589;SDS011;65471;55.908;37.880;2023-12-20T05:14:25;6.63;;;2.72;;
76589;SDS011;65471;55.908;37.880;2023-12-20T05:16:52;3.42;;;3.17;;
76589;SDS011;65471;55.908;37.880;2023-12-20T05:19:19;8.60;;;3.63;;
76589;SDS011;65471;55.908;37.880;2023-12-20T05:21:46;3.58;;;3.38;;
76589;SDS011;65471;55.908;37.880;2023-12-20T05:24:13;4.22;;;3.72;;
76589;SDS011;65471;55.908;37.880;2023-12-20T05:26:41;10.13;;;3.70;;
76589;SDS011;65471;55.908;37.880;2023-12-20T05:29:08;7.35;;;3.63;;
76589;SDS011;65471;55.908;37.880;2023-12-20T05:31:35;4.68;;;3.30;;
76589;SDS011;65471;55.908;37.880;2023-12-20T05:34:02;11.50;;;3.85;;
76589;SDS011;65471;55.908;37.880;2023-12-20T05:36:29;5.63;;;3.20;;
76589;SDS011;65471;55.908;37.880;2023-12-20T05:38:56;13.68;;;3.53;;
76589;SDS011;65471;55.908;37.880;2023-12-20T05:41:23;4.03;;;2.95;;
76589;SDS011;65471;55.908;37.880;2023-12-20T05:43:50;11.32;;;3.70;;
76589;SDS011;65471;55.908;37.880;2023-12-20T05:46:17;4.75;;;3.20;;
76589;SDS011;65471;55.908;37.880;2023-12-20T05:48:44;4.25;;;3.83;;
76589;SDS011;65471;55.908;37.880;2023-12-20T05:51:11;3.58;;;3.28;;
76589;SDS011;65471;55.908;37.880;2023-12-20T05:53:39;5.03;;;3.05;;
76589;SDS011;65471;55.908;37.880;2023-12-20T05:56:06;4.82;;;3.38;;
76589;SDS011;65471;55.908;37.880;2023-12-20T05:58:33;3.78;;;3.17;;
76589;SDS011;65471;55.908;37.880;2023-12-20T06:01:00;7.07;;;3.45;;
76589;SDS011;65471;55.908;37.880;2023-12-20T06:03:27;3.28;;;3.00;;
76589;SDS011;65471;55.908;37.880;2023-12-20T06:05:54;5.15;;;3.33;;
76589;SDS011;65471;55.908;37.880;2023-12-20T06:08:38;3.22;;;2.90;;
76589;SDS011;65471;55.908;37.880;2023-12-20T06:11:05;6.43;;;2.80;;
76589;SDS011;65471;55.908;37.880;2023-12-20T06:13:32;3.58;;;3.38;;
76589;SDS011;65471;55.908;37.880;2023-12-20T06:15:59;10.65;;;3.10;;
76589;SDS011;65471;55.908;37.880;2023-12-20T06:18:27;4.78;;;2.67;;
76589;SDS011;65471;55.908;37.880;2023-12-20T06:20:54;12.55;;;3.63;;
76589;SDS011;65471;55.908;37.880;2023-12-20T06:23:21;4.55;;;3.03;;
76589;SDS011;65471;55.908;37.880;2023-12-20T06:25:48;3.67;;;3.22;;
76589;SDS011;65471;55.908;37.880;2023-12-20T06:28:15;7.55;;;3.35;;
76589;SDS011;65471;55.908;37.880;2023-12-20T06:30:42;6.07;;;3.92;;
76589;SDS011;65471;55.908;37.880;2023-12-20T06:33:09;8.18;;;3.65;;
76589;SDS011;65471;55.908;37.880;2023-12-20T06:35:38;13.00;;;4.25;;
76589;SDS011;65471;55.908;37.880;2023-12-20T06:38:05;4.55;;;4.07;;
76589;SDS011;65471;55.908;37.880;2023-12-20T06:40:32;5.57;;;3.75;;
76589;SDS011;65471;55.908;37.880;2023-12-20T06:42:59;5.95;;;4.28;;
76589;SDS011;65471;55.908;37.880;2023-12-20T06:48:04;3.92;;;3.55;;
76589;SDS011;65471;55.908;37.880;2023-12-20T06:50:32;5.28;;;4.30;;
76589;SDS011;65471;55.908;37.880;2023-12-20T06:52:59;13.57;;;4.80;;
76589;SDS011;65471;55.908;37.880;2023-12-20T06:55:26;5.45;;;4.22;;
76589;SDS011;65471;55.908;37.880;2023-12-20T06:57:53;10.63;;;4.45;;
76589;SDS011;65471;55.908;37.880;2023-12-20T07:00:20;4.45;;;4.05;;
76589;SDS011;65471;55.908;37.880;2023-12-20T07:02:48;8.48;;;3.92;;
76589;SDS011;65471;55.908;37.880;2023-12-20T07:05:17;7.57;;;4.38;;
76589;SDS011;65471;55.908;37.880;2023-12-20T07:07:46;9.80;;;4.63;;
76589;SDS011;65471;55.908;37.880;2023-12-20T07:10:14;4.70;;;4.35;;
76589;SDS011;65471;55.908;37.880;2023-12-20T07:12:43;4.50;;;4.10;;
76589;SDS011;65471;55.908;37.880;2023-12-20T07:15:10;8.45;;;4.28;;
76589;SDS011;65471;55.908;37.880;2023-12-20T07:17:37;7.00;;;3.90;;
76589;SDS011;65471;55.908;37.880;2023-12-20T07:20:05;9.45;;;3.90;;
76589;SDS011;65471;55.908;37.880;2023-12-20T07:22:36;3.92;;;3.60;;
76589;SDS011;65471;55.908;37.880;2023-12-20T07:25:03;4.10;;;3.78;;
76589;SDS011;65471;55.908;37.880;2023-12-20T07:27:31;3.88;;;3.55;;
76589;SDS011;65471;55.908;37.880;2023-12-20T07:29:58;7.25;;;3.92;;
76589;SDS011;65471;55.908;37.880;2023-12-20T07:32:25;4.85;;;3.47;;
76589;SDS011;65471;55.908;37.880;2023-12-20T07:34:52;6.60;;;3.70;;
76589;SDS011;65471;55.908;37.880;2023-12-20T07:37:20;6.85;;;4.05;;
76589;SDS011;65471;55.908;37.880;2023-12-20T07:39:48;5.38;;;3.90;;
76589;SDS011;65471;55.908;37.880;2023-12-20T07:42:15;3.97;;;3.67;;
76589;SDS011;65471;55.908;37.880;2023-12-20T07:44:42;3.67;;;3.42;;
76589;SDS011;65471;55.908;37.880;2023-12-20T07:47:09;7.03;;;4.03;;
76589;SDS011;65471;55.908;37.880;2023-12-20T07:49:36;8.15;;;3.70;;
76589;SDS011;65471;55.908;37.880;2023-12-20T07:52:03;4.05;;;3.75;;
76589;SDS011;65471;55.908;37.880;2023-12-20T07:54:30;3.78;;;3.38;;
76589;SDS011;65471;55.908;37.880;2023-12-20T07:56:57;11.55;;;3.38;;
76589;SDS011;65471;55.908;37.880;2023-12-20T07:59:24;3.08;;;2.75;;
76589;SDS011;65471;55.908;37.880;2023-12-20T08:01:58;3.88;;;3.00;;
76589;SDS011;65471;55.908;37.880;2023-12-20T08:04:26;4.78;;;3.05;;
76589;SDS011;65471;55.908;37.880;2023-12-20T08:06:54;4.70;;;3.13;;
76589;SDS011;65471;55.908;37.880;2023-12-20T08:09:21;4.82;;;2.90;;
76589;SDS011;65471;55.908;37.880;2023-12-20T08:11:48;2.85;;;2.65;;
76589;SDS011;65471;55.908;37.880;2023-12-20T08:14:15;2.40;;;2.20;;
76589;SDS011;65471;55.908;37.880;2023-12-20T08:16:42;3.15;;;2.90;;
76589;SDS011;65471;55.908;37.880;2023-12-20T08:19:09;3.47;;;3.17;;
76589;SDS011;65471;55.908;37.880;2023-12-20T08:21:37;4.43;;;2.70;;
76589;SDS011;65471;55.908;37.880;2023-12-20T08:24:04;3.05;;;2.78;;
76589;SDS011;65471;55.908;37.880;2023-12-20T08:26:32;6.22;;;2.83;;
76589;SDS011;65471;55.908;37.880;2023-12-20T08:28:59;3.30;;;2.50;;
76589;SDS011;65471;55.908;37.880;2023-12-20T08:31:28;6.88;;;2.97;;
76589;SDS011;65471;55.908;37.880;2023-12-20T08:33:55;5.88;;;2.47;;
76589;SDS011;65471;55.908;37.880;2023-12-20T08:36:23;3.05;;;2.60;;
76589;SDS011;65471;55.908;37.880;2023-12-20T08:38:51;9.48;;;2.92;;
76589;SDS011;65471;55.908;37.880;2023-12-20T08:41:18;5.00;;;2.70;;
76589;SDS011;65471;55.908;37.880;2023-12-20T08:43:45;4.70;;;2.67;;
76589;SDS011;65471;55.908;37.880;2023-12-20T08:46:13;4.20;;;2.80;;
76589;SDS011;65471;55.908;37.880;2023-12-20T08:48:41;2.70;;;2.50;;
76589;SDS011;65471;55.908;37.880;2023-12-20T08:51:08;3.50;;;2.50;;
76589;SDS011;65471;55.908;37.880;2023-12-20T08:53:36;2.80;;;2.60;;
76589;SDS011;65471;55.908;37.880;2023-12-20T08:56:04;2.85;;;2.53;;
76589;SDS011;65471;55.908;37.880;2023-12-20T08:58:31;3.17;;;2.55;;
76589;SDS011;65471;55.908;37.880;2023-12-20T09:01:00;7.38;;;3.17;;
76589;SDS011;65471;55.908;37.880;2023-12-20T09:03:27;5.15;;;2.50;;
76589;SDS011;65471;55.908;37.880;2023-12-20T09:05:54;3.80;;;2.72;;
76589;SDS011;65471;55.908;37.880;2023-12-20T09:08:21;3.33;;;3.08;;
76589;SDS011;65471;55.908;37.880;2023-12-20T09:10:48;6.35;;;2.80;;
76589;SDS011;65471;55.908;37.880;2023-12-20T09:13:15;7.80;;;2.63;;
76589;SDS011;65471;55.908;37.880;2023-12-20T09:15:43;3.38;;;2.70;;
76589;SDS011;65471;55.908;37.880;2023-12-20T09:18:10;4.93;;;3.58;;
76589;SDS011;65471;55.908;37.880;2023-12-20T09:20:37;3.65;;;2.60;;
76589;SDS011;65471;55.908;37.880;2023-12-20T09:23:09;4.50;;;2.95;;
76589;SDS011;65471;55.908;37.880;2023-12-20T09:25:36;2.90;;;2.70;;
76589;SDS011;65471;55.908;37.880;2023-12-20T09:28:03;3.08;;;2.70;;
76589;SDS011;65471;55.908;37.880;2023-12-20T09:30:30;5.65;;;3.20;;
76589;SDS011;65471;55.908;37.880;2023-12-20T09:32:58;9.60;;;3.38;;
76589;SDS011;65471;55.908;37.880;2023-12-20T09:35:25;10.75;;;3.28;;
76589;SDS011;65471;55.908;37.880;2023-12-20T09:37:53;4.15;;;3.42;;
76589;SDS011;65471;55.908;37.880;2023-12-20T09:40:20;6.60;;;4.00;;
76589;SDS011;65471;55.908;37.880;2023-12-20T09:42:48;4.53;;;2.83;;
76589;SDS011;65471;55.908;37.880;2023-12-20T09:45:23;2.85;;;2.65;;
76589;SDS011;65471;55.908;37.880;2023-12-20T09:47:54;3.10;;;2.90;;
76589;SDS011;65471;55.908;37.880;2023-12-20T09:50:21;9.40;;;3.33;;
76589;SDS011;65471;55.908;37.880;2023-12-20T09:52:51;4.85;;;3.55;;
76589;SDS011;65471;55.908;37.880;2023-12-20T09:55:19;4.03;;;3.13;;
76589;SDS011;65471;55.908;37.880;2023-12-20T09:57:47;3.40;;;3.20;;
76589;SDS011;65471;55.908;37.880;2023-12-20T10:00:15;4.53;;;2.72;;
76589;SDS011;65471;55.908;37.880;2023-12-20T10:05:32;4.47;;;2.90;;
76589;SDS011;65471;55.908;37.880;2023-12-20T10:08:01;3.83;;;2.90;;
76589;SDS011;65471;55.908;37.880;2023-12-20T10:10:30;3.53;;;2.90;;
76589;SDS011;65471;55.908;37.880;2023-12-20T10:13:11;4.60;;;3.17;;
76589;SDS011;65471;55.908;37.880;2023-12-20T10:15:40;3.90;;;3.50;;
76589;SDS011;65471;55.908;37.880;2023-12-20T10:18:08;6.47;;;3.80;;
76589;SDS011;65471;55.908;37.880;2023-12-20T10:20:36;8.63;;;2.95;;
76589;SDS011;65471;55.908;37.880;2023-12-20T10:23:03;5.43;;;3.55;;
76589;SDS011;65471;55.908;37.880;2023-12-20T10:25:30;3.30;;;3.00;;
76589;SDS011;65471;55.908;37.880;2023-12-20T10:28:12;4.07;;;3.78;;
76589;SDS011;65471;55.908;37.880;2023-12-20T10:30:40;4.97;;;3.42;;
76589;SDS011;65471;55.908;37.880;2023-12-20T10:33:09;3.58;;;2.78;;
76589;SDS011;65471;55.908;37.880;2023-12-20T10:35:37;3.03;;;2.73;;
76589;SDS011;65471;55.908;37.880;2023-12-20T10:38:10;4.20;;;3.05;;
76589;SDS011;65471;55.908;37.880;2023-12-20T10:40:40;3.67;;;2.13;;
76589;SDS011;65471;55.908;37.880;2023-12-20T10:43:08;2.13;;;2.03;;
76589;SDS011;65471;55.908;37.880;2023-12-20T10:45:35;2.75;;;2.53;;
76589;SDS011;65471;55.908;37.880;2023-12-20T10:48:03;2.95;;;2.72;;
76589;SDS011;65471;55.908;37.880;2023-12-20T10:50:31;2.75;;;2.40;;
76589;SDS011;65471;55.908;37.880;2023-12-20T10:52:58;2.25;;;2.15;;
76589;SDS011;65471;55.908;37.880;2023-12-20T10:55:27;2.67;;;2.58;;
76589;SDS011;65471;55.908;37.880;2023-12-20T10:58:00;2.88;;;2.67;;
76589;SDS011;65471;55.908;37.880;2023-12-20T11:00:29;3.22;;;3.03;;
76589;SDS011;65471;55.908;37.880;2023-12-20T11:03:01;4.28;;;2.63;;
76589;SDS011;65471;55.908;37.880;2023-12-20T11:05:49;5.22;;;2.50;;
76589;SDS011;65471;55.908;37.880;2023-12-20T11:11:23;5.15;;;2.75;;
76589;SDS011;65471;55.908;37.880;2023-12-20T11:14:00;7.07;;;3.15;;
76589;SDS011;65471;55.908;37.880;2023-12-20T11:16:32;7.75;;;2.90;;
76589;SDS011;65471;55.908;37.880;2023-12-20T11:19:14;2.20;;;2.10;;
76589;SDS011;65471;55.908;37.880;2023-12-20T11:21:41;4.45;;;2.58;;
76589;SDS011;65471;55.908;37.880;2023-12-20T11:24:09;3.13;;;2.75;;
76589;SDS011;65471;55.908;37.880;2023-12-20T11:26:36;3.05;;;2.72;;
76589;SDS011;65471;55.908;37.880;2023-12-20T11:32:27;2.58;;;2.47;;
76589;SDS011;65471;55.908;37.880;2023-12-20T11:34:58;3.25;;;3.05;;
76589;SDS011;65471;55.908;37.880;2023-12-20T11:40:06;3.08;;;2.60;;
76589;SDS011;65471;55.908;37.880;2023-12-20T11:42:40;2.70;;;2.33;;
76589;SDS011;65471;55.908;37.880;2023-12-20T11:45:10;2.65;;;2.45;;
76589;SDS011;65471;55.908;37.880;2023-12-20T11:47:42;2.50;;;2.35;;
76589;SDS011;65471;55.908;37.880;2023-12-20T11:50:12;3.15;;;2.85;;
76589;SDS011;65471;55.908;37.880;2023-12-20T11:52:40;2.53;;;2.35;;
76589;SDS011;65471;55.908;37.880;2023-12-20T11:55:07;3.85;;;2.42;;
76589;SDS011;65471;55.908;37.880;2023-12-20T11:57:34;5.18;;;2.58;;
76589;SDS011;65471;55.908;37.880;2023-12-20T12:00:03;5.70;;;2.70;;
76589;SDS011;65471;55.908;37.880;2023-12-20T12:02:31;6.20;;;2.75;;
76589;SDS011;65471;55.908;37.880;2023-12-20T12:05:01;2.65;;;2.55;;
76589;SDS011;65471;55.908;37.880;2023-12-20T12:07:33;2.28;;;2.17;;
76589;SDS011;65471;55.908;37.880;2023-12-20T12:10:01;5.03;;;2.28;;
76589;SDS011;65471;55.908;37.880;2023-12-20T12:12:30;3.92;;;2.47;;
76589;SDS011;65471;55.908;37.880;2023-12-20T12:14:59;2.95;;;2.50;;
76589;SDS011;65471;55.908;37.880;2023-12-20T12:17:26;2.65;;;2.42;;
76589;SDS011;65471;55.908;37.880;2023-12-20T12:20:01;2.78;;;2.60;;
76589;SDS011;65471;55.908;37.880;2023-12-20T12:22:31;7.00;;;2.42;;
76589;SDS011;65471;55.908;37.880;2023-12-20T12:25:10;2.50;;;2.40;;
76589;SDS011;65471;55.908;37.880;2023-12-20T12:27:39;5.43;;;2.22;;
76589;SDS011;65471;55.908;37.880;2023-12-20T12:30:08;2.25;;;2.13;;
76589;SDS011;65471;55.908;37.880;2023-12-20T12:32:36;5.50;;;2.47;;
76589;SDS011;65471;55.908;37.880;2023-12-20T12:35:04;7.03;;;2.50;;
76589;SDS011;65471;55.908;37.880;2023-12-20T12:37:35;13.63;;;3.00;;
76589;SDS011;65471;55.908;37.880;2023-12-20T12:40:06;2.92;;;2.65;;
76589;SDS011;65471;55.908;37.880;2023-12-20T12:42:37;2.75;;;2.55;;
76589;SDS011;65471;55.908;37.880;2023-12-20T12:45:04;2.50;;;2.40;;
76589;SDS011;65471;55.908;37.880;2023-12-20T12:47:32;2.88;;;2.70;;
76589;SDS011;65471;55.908;37.880;2023-12-20T12:50:00;2.13;;;2.00;;
76589;SDS011;65471;55.908;37.880;2023-12-20T12:52:30;3.70;;;2.28;;
76589;SDS011;65471;55.908;37.880;2023-12-20T12:54:58;2.15;;;1.95;;
76589;SDS011;65471;55.908;37.880;2023-12-20T12:57:25;6.10;;;2.28;;
76589;SDS011;65471;55.908;37.880;2023-12-20T12:59:53;2.80;;;1.90;;
76589;SDS011;65471;55.908;37.880;2023-12-20T13:02:20;7.80;;;2.13;;
76589;SDS011;65471;55.908;37.880;2023-12-20T13:04:47;1.70;;;1.60;;
76589;SDS011;65471;55.908;37.880;2023-12-20T13:07:14;2.10;;;2.00;;
76589;SDS011;65471;55.908;37.880;2023-12-20T13:09:41;2.22;;;1.98;;
76589;SDS011;65471;55.908;37.880;2023-12-20T13:12:08;2.83;;;1.95;;
76589;SDS011;65471;55.908;37.880;2023-12-20T13:14:35;2.20;;;2.10;;
76589;SDS011;65471;55.908;37.880;2023-12-20T13:17:05;3.22;;;2.25;;
76589;SDS011;65471;55.908;37.880;2023-12-20T13:19:32;1.98;;;1.85;;
76589;SDS011;65471;55.908;37.880;2023-12-20T13:21:59;2.00;;;1.90;;
76589;SDS011;65471;55.908;37.880;2023-12-20T13:24:27;5.38;;;1.95;;
76589;SDS011;65471;55.908;37.880;2023-12-20T13:26:54;2.20;;;1.98;;
76589;SDS011;65471;55.908;37.880;2023-12-20T13:29:21;8.75;;;2.20;;
76589;SDS011;65471;55.908;37.880;2023-12-20T13:31:48;3.17;;;2.10;;
76589;SDS011;65471;55.908;37.880;2023-12-20T13:34:16;2.45;;;2.10;;
76589;SDS011;65471;55.908;37.880;2023-12-20T13:36:44;4.43;;;2.30;;
76589;SDS011;65471;55.908;37.880;2023-12-20T13:39:14;2.33;;;2.17;;
76589;SDS011;65471;55.908;37.880;2023-12-20T13:41:41;6.88;;;2.53;;
76589;SDS011;65471;55.908;37.880;2023-12-20T13:44:08;4.15;;;2.75;;
76589;SDS011;65471;55.908;37.880;2023-12-20T13:46:35;2.63;;;2.42;;
76589;SDS011;65471;55.908;37.880;2023-12-20T13:49:03;3.85;;;3.55;;
76589;SDS011;65471;55.908;37.880;2023-12-20T13:51:31;8.43;;;2.78;;
76589;SDS011;65471;55.908;37.880;2023-12-20T13:53:58;4.80;;;2.92;;
76589;SDS011;65471;55.908;37.880;2023-12-20T13:56:25;6.22;;;2.67;;
76589;SDS011;65471;55.908;37.880;2023-12-20T13:58:52;2.80;;;2.60;;
76589;SDS011;65471;55.908;37.880;2023-12-20T14:01:19;3.38;;;3.08;;
76589;SDS011;65471;55.908;37.880;2023-12-20T14:03:47;7.22;;;3.05;;
76589;SDS011;65471;55.908;37.880;2023-12-20T14:06:13;3.92;;;3.42;;
76589;SDS011;65471;55.908;37.880;2023-12-20T14:08:41;11.85;;;3.33;;
76589;SDS011;65471;55.908;37.880;2023-12-20T14:11:09;8.70;;;2.83;;
76589;SDS011;65471;55.908;37.880;2023-12-20T14:13:37;11.43;;;3.20;;
76589;SDS011;65471;55.908;37.880;2023-12-20T14:16:04;12.90;;;3.40;;
76589;SDS011;65471;55.908;37.880;2023-12-20T14:18:31;7.60;;;2.67;;
76589;SDS011;65471;55.908;37.880;2023-12-20T14:20:58;3.45;;;2.83;;
76589;SDS011;65471;55.908;37.880;2023-12-20T14:23:25;3.95;;;3.65;;
76589;SDS011;65471;55.908;37.880;2023-12-20T14:25:52;3.50;;;3.20;;
76589;SDS011;65471;55.908;37.880;2023-12-20T14:28:19;3.88;;;3.58;;
76589;SDS011;65471;55.908;37.880;2023-12-20T14:30:47;4.65;;;2.97;;
76589;SDS011;65471;55.908;37.880;2023-12-20T14:33:16;5.18;;;3.22;;
76589;SDS011;65471;55.908;37.880;2023-12-20T14:35:43;5.25;;;2.70;;
76589;SDS011;65471;55.908;37.880;2023-12-20T14:38:11;4.38;;;2.88;;
76589;SDS011;65471;55.908;37.880;2023-12-20T14:40:41;3.33;;;3.03;;
76589;SDS011;65471;55.908;37.880;2023-12-20T14:43:08;14.10;;;3.00;;
76589;SDS011;65471;55.908;37.880;2023-12-20T14:45:36;2.50;;;2.35;;
76589;SDS011;65471;55.908;37.880;2023-12-20T14:48:04;2.45;;;2.35;;
76589;SDS011;65471;55.908;37.880;2023-12-20T14:50:31;3.30;;;2.85;;
76589;SDS011;65471;55.908;37.880;2023-12-20T14:52:58;5.07;;;3.13;;
76589;SDS011;65471;55.908;37.880;2023-12-20T14:55:26;2.60;;;2.50;;